Time;durP1;ratioP1;P1;durP2;ratioP2;P2;SDS_P1;SDS_P2;PMS_P1;PMS_P2;Temp;Humidity;BMP_temperature;BMP_pressure;BME280_temperature;BME280_humidity;BME280_pressure;Samples;Min_cycle;Max_cycle;Signal;HPM_P1;HPM_P2
2021/12/03 00:01:29;;;;;;;28.87;19.05;;;;;;;4.47;83.17;98386.38;1769039;81;21106;-80
2021/12/03 00:03:55;;;;;;;24.55;17.85;;;;;;;4.46;83.26;98389.30;1768738;80;21491;-76
2021/12/03 00:06:24;;;;;;;22.60;16.70;;;;;;;4.46;83.41;98400.73;1742325;81;21523;-78
2021/12/03 00:08:51;;;;;;;22.62;17.15;;;;;;;4.49;83.49;98401.59;1768509;81;21062;-73
2021/12/03 00:11:17;;;;;;;27.03;18.30;;;;;;;4.54;83.55;98400.87;1742552;81;21609;-73
2021/12/03 00:13:44;;;;;;;21.55;15.20;;;;;;;4.55;83.46;98407.81;1769041;81;21856;-72
2021/12/03 00:16:12;;;;;;;28.25;18.27;;;;;;;4.54;83.37;98405.67;1742572;81;21067;-79
2021/12/03 00:18:39;;;;;;;20.12;15.13;;;;;;;4.48;83.34;98395.17;1764290;81;21495;-75
2021/12/03 00:21:08;;;;;;;24.20;17.05;;;;;;;4.44;83.35;98397.52;1735217;82;21003;-78
2021/12/03 00:23:36;;;;;;;25.32;17.92;;;;;;;4.37;83.49;98404.32;1710001;82;21559;-77
2021/12/03 00:26:05;;;;;;;24.00;18.10;;;;;;;4.31;83.68;98402.65;1731882;81;21098;-78
2021/12/03 00:28:31;;;;;;;17.32;15.13;;;;;;;4.26;83.91;98411.06;1768603;81;21025;-77
2021/12/03 00:30:59;;;;;;;28.50;16.32;;;;;;;4.24;84.13;98409.97;1742678;81;21025;-81
2021/12/03 00:33:26;;;;;;;22.60;16.10;;;;;;;4.24;84.32;98413.95;1768544;81;20959;-87
2021/12/03 00:35:52;;;;;;;21.52;16.57;;;;;;;4.27;84.45;98410.80;1746900;81;21035;-82
2021/12/03 00:38:19;;;;;;;21.60;16.15;;;;;;;4.23;84.50;98404.35;1735347;82;21030;-81
2021/12/03 00:40:46;;;;;;;26.60;18.00;;;;;;;4.23;84.50;98404.35;1766456;81;20946;-80
2021/12/03 00:43:12;;;;;;;20.48;15.45;;;;;;;4.20;84.67;98400.05;1742622;81;21230;-80
2021/12/03 00:45:39;;;;;;;21.30;15.72;;;;;;;4.20;84.76;98400.05;1768846;80;21071;-77
2021/12/03 00:48:05;;;;;;;26.20;16.23;;;;;;;4.19;84.84;98403.22;1742716;81;21010;-81
2021/12/03 00:50:32;;;;;;;23.80;16.60;;;;;;;4.17;84.93;98406.63;1715253;82;21831;-77
2021/12/03 00:52:59;;;;;;;21.75;15.72;;;;;;;4.17;85.05;98401.31;1734848;82;20975;-81
2021/12/03 00:55:28;;;;;;;21.80;17.10;;;;;;;4.19;85.11;98395.24;1762291;81;21031;-77
2021/12/03 00:57:54;;;;;;;19.80;15.35;;;;;;;4.19;85.21;98405.89;1768925;81;21095;-78
2021/12/03 01:00:25;;;;;;;22.37;15.58;;;;;;;4.23;85.30;98396.89;1767386;81;21077;-77
2021/12/03 01:02:53;;;;;;;23.47;16.55;;;;;;;4.26;85.18;98395.09;1745429;80;22561;-75
2021/12/03 01:05:20;;;;;;;28.42;20.30;;;;;;;4.23;85.03;98391.57;1738596;82;21047;-76
2021/12/03 01:07:47;;;;;;;21.27;15.68;;;;;;;4.20;85.07;98395.53;1712883;82;21005;-76
2021/12/03 01:10:13;;;;;;;24.63;16.45;;;;;;;4.16;85.28;98383.77;1759058;81;21074;-75
2021/12/03 01:12:40;;;;;;;20.95;17.67;;;;;;;4.02;85.78;98390.95;1741570;81;21113;-76
2021/12/03 01:15:09;;;;;;;23.98;18.32;;;;;;;3.86;86.50;98397.84;1767345;81;22558;-76
2021/12/03 01:17:36;;;;;;;23.95;17.60;;;;;;;3.86;86.50;98397.84;1710080;82;20971;-76
2021/12/03 01:20:06;;;;;;;25.70;17.35;;;;;;;3.82;86.83;98390.88;1717020;82;21015;-75
2021/12/03 01:22:34;;;;;;;22.90;17.73;;;;;;;3.78;87.09;98393.73;1675518;84;21115;-75
2021/12/03 01:25:00;;;;;;;21.55;16.70;;;;;;;3.79;87.19;98386.01;1724668;82;20916;-75
2021/12/03 01:27:26;;;;;;;28.87;16.60;;;;;;;3.83;87.22;98387.17;1742394;81;21068;-72
2021/12/03 01:29:54;;;;;;;29.40;17.75;;;;;;;3.89;87.25;98390.19;1770680;81;20926;-77
2021/12/03 01:32:20;;;;;;;25.02;17.50;;;;;;;3.95;87.17;98397.73;1742628;81;21102;-79
2021/12/03 01:34:47;;;;;;;23.25;16.62;;;;;;;4.06;86.83;98394.74;1770375;81;21121;-74
2021/12/03 01:37:13;;;;;;;26.48;17.70;;;;;;;4.06;86.83;98394.74;1709460;82;21047;-74
2021/12/03 01:39:39;;;;;;;20.82;17.05;;;;;;;4.07;86.56;98389.72;1732142;82;21125;-75
2021/12/03 01:42:06;;;;;;;24.92;18.95;;;;;;;4.08;86.41;98397.95;1733336;82;21497;-74
2021/12/03 01:44:32;;;;;;;24.20;18.17;;;;;;;4.04;86.23;98387.52;1684138;83;20998;-75
2021/12/03 01:46:59;;;;;;;22.50;18.00;;;;;;;3.98;86.18;98383.17;1658740;85;21091;-73
2021/12/03 01:49:25;;;;;;;23.05;16.30;;;;;;;3.91;86.29;98385.45;1733539;81;21035;-85
2021/12/03 01:51:51;;;;;;;23.62;17.17;;;;;;;3.89;86.48;98380.06;1737362;81;21009;-73
2021/12/03 01:54:18;;;;;;;21.97;15.85;;;;;;;3.85;86.43;98374.42;1734820;81;20951;-84
2021/12/03 01:56:44;;;;;;;30.43;18.48;;;;;;;3.86;86.97;98373.91;1736949;81;21528;-84
2021/12/03 01:59:11;;;;;;;20.45;15.95;;;;;;;3.86;86.97;98373.91;1759191;81;21484;-86
2021/12/03 02:01:38;;;;;;;25.72;18.95;;;;;;;3.91;86.95;98380.13;1759295;81;21038;-74
2021/12/03 02:04:06;;;;;;;26.82;17.67;;;;;;;3.97;86.76;98381.03;1713744;82;21890;-70
2021/12/03 02:06:33;;;;;;;21.07;17.82;;;;;;;3.99;86.76;98376.27;1727015;83;21059;-70
2021/12/03 02:09:00;;;;;;;22.27;17.07;;;;;;;4.01;86.59;98376.84;1758956;81;21023;-70
2021/12/03 02:11:27;;;;;;;24.47;18.07;;;;;;;4.03;86.43;98379.27;1767999;81;21030;-73
2021/12/03 02:13:53;;;;;;;23.80;18.15;;;;;;;4.02;86.31;98375.80;1767427;81;21527;-74
2021/12/03 02:16:20;;;;;;;21.52;17.07;;;;;;;3.98;86.33;98371.98;1739642;81;21213;-75
2021/12/03 02:18:48;;;;;;;24.72;18.42;;;;;;;3.95;86.47;98380.45;1735288;81;21011;-70
2021/12/03 02:21:15;;;;;;;24.60;18.92;;;;;;;3.94;86.45;98372.99;1733369;82;21337;-70
2021/12/03 02:23:41;;;;;;;24.50;17.87;;;;;;;3.89;86.47;98374.23;1727486;81;20990;-70
2021/12/03 02:26:07;;;;;;;27.55;19.02;;;;;;;3.84;86.58;98369.34;1765970;81;21066;-71
2021/12/03 02:28:38;;;;;;;29.48;19.55;;;;;;;3.81;86.78;98367.17;1741732;81;21041;-70
2021/12/03 02:31:05;;;;;;;26.45;19.90;;;;;;;3.76;87.00;98365.74;1766080;81;20939;-72
2021/12/03 02:33:33;;;;;;;21.23;16.32;;;;;;;3.77;87.17;98361.53;1766336;81;21051;-72
2021/12/03 02:36:00;;;;;;;24.82;17.55;;;;;;;3.84;87.34;98359.52;1760951;81;21556;-73
2021/12/03 02:38:27;;;;;;;22.52;17.02;;;;;;;3.87;87.08;98352.41;1731156;81;20974;-71
2021/12/03 02:40:54;;;;;;;25.37;17.73;;;;;;;3.84;86.90;98339.56;1710715;82;21083;-72
2021/12/03 02:43:21;;;;;;;21.55;16.82;;;;;;;3.80;86.92;98328.33;1750572;81;21575;-85
2021/12/03 02:45:50;;;;;;;24.00;17.32;;;;;;;3.76;87.02;98335.98;1771913;81;20950;-78
2021/12/03 02:48:16;;;;;;;22.20;17.30;;;;;;;3.70;87.20;98340.91;1741977;81;21073;-79
2021/12/03 02:50:43;;;;;;;24.75;17.05;;;;;;;3.71;87.40;98339.87;1763717;81;21021;-79
2021/12/03 02:53:09;;;;;;;21.27;17.57;;;;;;;3.71;87.48;98347.85;1742963;81;21567;-79
2021/12/03 02:55:35;;;;;;;23.62;16.32;;;;;;;3.69;87.42;98342.50;1770623;80;21026;-77
2021/12/03 02:58:03;;;;;;;22.90;17.73;;;;;;;3.73;87.50;98348.44;1762651;81;21014;-77
2021/12/03 03:00:30;;;;;;;24.27;17.73;;;;;;;3.72;87.33;98349.47;1770386;81;21093;-77
2021/12/03 03:02:57;;;;;;;23.35;17.57;;;;;;;3.65;87.40;98347.47;1737314;82;21002;-76
2021/12/03 03:05:25;;;;;;;27.20;19.48;;;;;;;3.59;87.62;98339.66;1734415;82;21834;-77
2021/12/03 03:07:52;;;;;;;25.20;18.50;;;;;;;3.53;88.01;98339.27;1733093;82;20967;-76
2021/12/03 03:10:27;;;;;;;25.08;18.62;;;;;;;3.46;88.33;98324.78;1709771;82;21734;-74
2021/12/03 03:12:52;;;;;;;25.92;17.52;;;;;;;3.40;88.55;98321.25;1676125;82;21043;-71
2021/12/03 03:15:19;;;;;;;29.63;20.60;;;;;;;3.29;88.82;98327.40;1715560;82;21086;-74
2021/12/03 03:17:46;;;;;;;28.75;18.50;;;;;;;3.30;89.17;98318.91;1734671;82;22133;-74
2021/12/03 03:20:13;;;;;;;23.75;16.60;;;;;;;3.32;89.29;98313.63;1697261;82;21015;-75
2021/12/03 03:22:40;;;;;;;29.72;20.43;;;;;;;3.34;89.24;98308.09;1738906;82;20984;-76
2021/12/03 03:25:09;;;;;;;23.47;18.87;;;;;;;3.32;89.29;98308.84;1705959;82;21007;-77
2021/12/03 03:27:36;;;;;;;28.60;19.82;;;;;;;3.24;89.53;98293.28;1731443;82;21094;-77
2021/12/03 03:30:05;;;;;;;25.23;17.77;;;;;;;3.17;89.65;98294.73;1696417;82;21069;-77
2021/12/03 03:32:32;;;;;;;27.37;18.90;;;;;;;3.07;90.29;98286.56;1707283;82;21006;-78
2021/12/03 03:35:01;;;;;;;24.75;17.37;;;;;;;3.04;90.40;98301.14;1734511;82;21039;-77
2021/12/03 03:37:29;;;;;;;30.23;18.92;;;;;;;3.03;90.59;98296.86;1707338;82;20997;-76
2021/12/03 03:39:55;;;;;;;23.77;18.23;;;;;;;3.09;90.68;98299.11;1731378;82;20976;-77
2021/12/03 03:42:21;;;;;;;26.07;20.00;;;;;;;3.12;90.68;98296.52;1687072;83;21464;-80
2021/12/03 03:44:48;;;;;;;22.02;17.70;;;;;;;3.09;90.65;98293.80;1689397;84;20975;-78
2021/12/03 03:47:15;;;;;;;28.23;18.62;;;;;;;3.06;90.79;98287.64;1709816;82;21502;-78
2021/12/03 03:49:41;;;;;;;26.12;19.75;;;;;;;3.06;90.87;98285.79;1737094;82;20993;-77
2021/12/03 03:52:10;;;;;;;21.73;17.32;;;;;;;3.04;91.05;98269.79;1737739;82;20961;-76
2021/12/03 03:54:36;;;;;;;25.12;17.30;;;;;;;3.07;91.11;98272.77;1692897;82;21135;-78
2021/12/03 03:57:04;;;;;;;22.10;15.28;;;;;;;3.04;91.04;98259.98;1715113;82;20972;-77
2021/12/03 03:59:30;;;;;;;22.48;15.72;;;;;;;3.07;91.14;98252.05;1735735;82;21012;-78
2021/12/03 04:01:57;;;;;;;19.57;15.88;;;;;;;3.08;91.06;98247.83;1739414;82;21080;-79
2021/12/03 04:04:25;;;;;;;23.02;16.57;;;;;;;3.10;91.08;98252.92;1736283;82;21548;-76
2021/12/03 04:06:53;;;;;;;22.93;16.73;;;;;;;3.13;91.13;98263.58;1733446;82;21016;-76
2021/12/03 04:09:20;;;;;;;28.62;20.57;;;;;;;3.18;91.16;98265.00;1728434;82;20931;-75
2021/12/03 04:11:46;;;;;;;23.80;18.77;;;;;;;3.21;90.94;98271.19;1676939;85;21010;-75
2021/12/03 04:14:13;;;;;;;27.32;19.30;;;;;;;3.25;90.91;98273.66;1689134;83;21527;-75
2021/12/03 04:16:41;;;;;;;25.85;18.50;;;;;;;3.22;90.51;98270.93;1685867;82;21017;-76
2021/12/03 04:19:07;;;;;;;25.10;17.60;;;;;;;3.14;90.45;98268.66;1733762;82;21220;-74
2021/12/03 04:21:33;;;;;;;24.82;17.10;;;;;;;3.14;90.53;98266.52;1703871;82;20957;-74
2021/12/03 04:24:00;;;;;;;28.52;19.37;;;;;;;3.09;90.55;98259.27;1714903;82;21005;-75
2021/12/03 04:26:26;;;;;;;24.37;18.45;;;;;;;3.03;90.59;98261.53;1732383;82;21138;-73
2021/12/03 04:28:53;;;;;;;24.12;16.93;;;;;;;2.97;90.72;98258.52;1676742;85;21452;-76
2021/12/03 04:31:22;;;;;;;21.37;16.48;;;;;;;2.90;90.97;98259.97;1711883;82;21095;-75
2021/12/03 04:33:48;;;;;;;24.80;17.75;;;;;;;2.86;91.12;98276.09;1735510;82;21013;-75
2021/12/03 04:36:15;;;;;;;23.20;16.93;;;;;;;2.83;91.26;98277.86;1735507;82;21076;-78
2021/12/03 04:38:41;;;;;;;22.32;16.93;;;;;;;2.82;91.59;98270.16;1711951;82;20987;-78
2021/12/03 04:41:08;;;;;;;23.40;18.37;;;;;;;2.81;91.57;98269.34;1706823;82;21102;-75
2021/12/03 04:43:35;;;;;;;30.62;19.70;;;;;;;2.80;91.67;98260.28;1656240;84;21128;-76
2021/12/03 04:46:02;;;;;;;22.75;17.67;;;;;;;2.78;91.89;98260.50;1712852;82;20920;-75
2021/12/03 04:48:29;;;;;;;23.30;15.95;;;;;;;2.82;92.08;98246.27;1708568;82;20964;-76
2021/12/03 04:50:55;;;;;;;21.52;17.37;;;;;;;2.87;92.16;98238.40;1711856;82;21687;-78
2021/12/03 04:53:22;;;;;;;24.12;18.27;;;;;;;2.91;92.20;98239.53;1678740;84;21563;-78
2021/12/03 04:55:49;;;;;;;25.35;16.77;;;;;;;2.91;92.23;98231.05;1704050;84;21232;-78
2021/12/03 04:58:16;;;;;;;22.82;16.37;;;;;;;2.90;92.26;98237.40;1704453;82;21539;-76
2021/12/03 05:00:52;;;;;;;25.68;17.67;;;;;;;2.88;92.32;98240.80;1697103;82;20928;-75
2021/12/03 05:03:18;;;;;;;25.20;19.40;;;;;;;2.84;92.47;98242.84;1733188;82;21508;-76
2021/12/03 05:05:51;;;;;;;28.65;20.00;;;;;;;2.81;92.48;98236.68;1710133;82;21484;-77
2021/12/03 05:08:15;;;;;;;27.40;19.40;;;;;;;2.79;92.59;98243.54;1732850;82;20921;-77
2021/12/03 05:10:42;;;;;;;23.55;17.15;;;;;;;2.81;92.58;98240.14;1703436;82;20995;-77
2021/12/03 05:13:28;;;;;;;26.12;18.75;;;;;;;2.82;92.62;98252.38;1678918;84;20959;-78
2021/12/03 05:16:06;;;;;;;27.82;20.02;;;;;;;2.81;92.50;98247.30;1707523;82;21031;-79
2021/12/03 05:18:34;;;;;;;24.45;18.70;;;;;;;2.76;92.62;98248.00;1729353;82;21006;-79
2021/12/03 05:21:02;;;;;;;23.90;16.93;;;;;;;2.78;92.77;98241.92;1704674;82;22398;-80
2021/12/03 05:23:31;;;;;;;28.42;21.00;;;;;;;2.82;92.80;98244.94;1702760;84;21061;-77
2021/12/03 05:25:58;;;;;;;27.30;18.67;;;;;;;2.81;92.78;98230.05;1702602;84;21091;-79
2021/12/03 05:28:26;;;;;;;31.90;18.23;;;;;;;2.82;92.71;98225.83;1706106;82;21023;-78
2021/12/03 05:30:53;;;;;;;23.55;17.17;;;;;;;2.73;92.76;98218.48;1710218;82;21010;-78
2021/12/03 05:33:20;;;;;;;21.97;16.87;;;;;;;2.71;92.94;98216.56;1701238;84;21194;-78
2021/12/03 05:35:47;;;;;;;27.20;18.50;;;;;;;2.66;93.24;98197.89;1721605;82;21027;-79
2021/12/03 05:38:14;;;;;;;23.62;17.95;;;;;;;2.62;93.40;98185.09;1733302;82;21078;-78
2021/12/03 05:40:41;;;;;;;22.22;17.12;;;;;;;2.62;93.70;98176.33;1733488;82;21066;-78
2021/12/03 05:43:08;;;;;;;24.35;17.00;;;;;;;2.63;93.75;98176.62;1733417;82;21048;-77
2021/12/03 05:45:35;;;;;;;24.12;16.65;;;;;;;2.68;93.86;98177.23;1733407;82;21126;-79
2021/12/03 05:48:02;;;;;;;24.60;18.30;;;;;;;2.66;93.84;98177.47;1733339;82;22195;-76
2021/12/03 05:50:30;;;;;;;27.05;16.70;;;;;;;2.63;93.95;98169.98;1733160;82;21027;-77
2021/12/03 05:53:00;;;;;;;24.87;18.20;;;;;;;2.66;94.06;98185.94;1733362;82;21563;-79
2021/12/03 05:55:27;;;;;;;24.47;18.98;;;;;;;2.69;94.08;98188.11;1733421;82;21003;-78
2021/12/03 05:57:53;;;;;;;27.95;20.08;;;;;;;2.74;94.03;98192.20;1710140;82;21000;-78
2021/12/03 06:00:27;;;;;;;25.57;17.92;;;;;;;2.77;93.85;98189.09;1732805;82;20983;-77
2021/12/03 06:02:54;;;;;;;30.55;23.07;;;;;;;2.78;93.74;98200.00;1733239;82;20940;-78
2021/12/03 06:05:22;;;;;;;24.87;18.70;;;;;;;2.80;93.66;98201.36;1733394;82;20991;-77
2021/12/03 06:07:48;;;;;;;24.07;18.25;;;;;;;2.89;93.82;98207.09;1733315;82;21038;-74
2021/12/03 06:10:15;;;;;;;21.77;17.73;;;;;;;2.97;93.65;98198.77;1733279;82;21116;-75
2021/12/03 06:12:43;;;;;;;25.12;20.45;;;;;;;3.04;93.34;98192.78;1709872;82;20966;-74
2021/12/03 06:15:10;;;;;;;24.27;18.80;;;;;;;3.04;92.91;98188.28;1733309;82;21016;-76
2021/12/03 06:17:38;;;;;;;24.18;15.83;;;;;;;3.03;92.70;98197.80;1733414;82;21215;-76
2021/12/03 06:20:07;;;;;;;25.45;18.20;;;;;;;3.01;92.40;98213.98;1733705;82;21004;-77
2021/12/03 06:22:33;;;;;;;28.07;18.37;;;;;;;3.00;92.41;98220.86;1734425;82;21147;-76
2021/12/03 06:25:01;;;;;;;22.75;18.00;;;;;;;2.96;92.20;98228.50;1734374;82;20983;-76
2021/12/03 06:27:30;;;;;;;25.00;18.17;;;;;;;2.91;92.18;98239.53;1734817;82;21015;-76
2021/12/03 06:29:57;;;;;;;23.67;17.42;;;;;;;2.94;92.47;98258.97;1734583;82;21414;-77
2021/12/03 06:32:24;;;;;;;27.77;17.60;;;;;;;3.04;92.71;98277.76;1733647;81;21677;-76
2021/12/03 06:34:50;;;;;;;19.12;13.13;;;;;;;3.14;92.52;98300.53;1733504;82;21145;-77
2021/12/03 06:37:17;;;;;;;22.25;15.75;;;;;;;3.21;92.31;98299.08;1733415;82;21018;-79
2021/12/03 06:39:45;;;;;;;22.82;18.62;;;;;;;3.25;92.14;98312.98;1734676;82;21029;-77
2021/12/03 06:42:11;;;;;;;25.77;17.57;;;;;;;3.28;91.89;98317.81;1734014;82;21013;-76
2021/12/03 06:44:38;;;;;;;23.00;17.10;;;;;;;3.31;91.73;98309.91;1735863;82;21017;-75
2021/12/03 06:47:04;;;;;;;23.35;18.07;;;;;;;3.36;91.71;98305.47;1688378;83;21057;-76
2021/12/03 06:49:33;;;;;;;18.55;14.50;;;;;;;3.44;91.37;98296.33;1700066;82;21589;-76
2021/12/03 06:52:05;;;;;;;23.77;17.65;;;;;;;3.47;91.24;98303.81;1720184;82;21492;-75
2021/12/03 06:54:33;;;;;;;22.60;17.82;;;;;;;3.57;91.31;98299.20;1705489;82;21059;-76
2021/12/03 06:57:00;;;;;;;24.23;17.30;;;;;;;3.69;91.14;98307.94;1736172;82;20941;-75
2021/12/03 06:59:27;;;;;;;27.62;21.02;;;;;;;3.78;90.84;98298.00;1714554;82;21035;-79
2021/12/03 07:01:54;;;;;;;23.98;16.73;;;;;;;3.86;90.47;98291.47;1711807;82;21534;-83
2021/12/03 07:04:22;;;;;;;23.50;19.42;;;;;;;3.85;89.88;98288.00;1735761;82;21583;-78
2021/12/03 07:06:49;;;;;;;22.10;17.80;;;;;;;3.84;89.60;98290.89;1735921;82;21023;-78
2021/12/03 07:09:16;;;;;;;25.75;16.77;;;;;;;3.84;89.37;98295.69;1695771;82;21512;-77
2021/12/03 07:11:42;;;;;;;25.35;16.52;;;;;;;3.92;89.59;98290.00;1691655;82;21136;-86
2021/12/03 07:14:09;;;;;;;27.05;18.15;;;;;;;3.93;88.99;98292.91;1735943;82;21649;-83
2021/12/03 07:16:35;;;;;;;21.52;14.87;;;;;;;3.92;88.98;98295.31;1736307;82;22209;-82
2021/12/03 07:19:03;;;;;;;23.52;18.05;;;;;;;4.00;89.04;98307.39;1717763;82;21077;-80
2021/12/03 07:21:30;;;;;;;26.65;18.87;;;;;;;4.02;88.80;98307.98;1726738;82;20991;-76
2021/12/03 07:23:57;;;;;;;25.82;18.25;;;;;;;4.08;88.75;98293.69;1685947;82;21196;-77
2021/12/03 07:26:24;;;;;;;28.80;20.17;;;;;;;4.14;88.58;98286.59;1736772;82;20988;-74
2021/12/03 07:28:51;;;;;;;31.57;24.18;;;;;;;4.16;88.31;98278.67;1736108;82;21494;-76
2021/12/03 07:31:19;;;;;;;24.87;18.65;;;;;;;4.20;88.26;98267.81;1736437;82;21045;-77
2021/12/03 07:33:46;;;;;;;32.93;20.25;;;;;;;4.26;88.22;98277.49;1734564;82;20929;-77
2021/12/03 07:36:13;;;;;;;28.30;23.05;;;;;;;4.33;88.08;98279.97;1735810;82;21169;-78
2021/12/03 07:38:41;;;;;;;32.30;22.75;;;;;;;4.43;87.86;98279.31;1709818;82;20962;-79
2021/12/03 07:41:08;;;;;;;29.70;20.88;;;;;;;4.47;87.43;98270.59;1706008;82;21063;-77
2021/12/03 07:43:34;;;;;;;21.87;17.57;;;;;;;4.50;87.33;98271.45;1734494;82;21028;-77
2021/12/03 07:46:02;;;;;;;25.95;20.97;;;;;;;4.53;87.01;98265.63;1703596;82;21046;-76
2021/12/03 07:48:28;;;;;;;24.72;18.00;;;;;;;4.51;86.88;98276.25;1717567;82;21162;-76
2021/12/03 07:50:56;;;;;;;36.05;21.12;;;;;;;4.52;86.69;98275.17;1730129;82;21045;-76
2021/12/03 07:53:23;;;;;;;28.30;20.37;;;;;;;4.44;86.43;98284.39;1719787;82;20880;-76
2021/12/03 07:55:50;;;;;;;28.47;20.97;;;;;;;4.39;86.63;98286.98;1712136;82;21082;-74
2021/12/03 07:58:17;;;;;;;27.15;20.17;;;;;;;4.42;86.79;98295.80;1738281;82;21030;-76
2021/12/03 08:00:46;;;;;;;29.55;22.40;;;;;;;4.50;86.78;98311.38;1750599;81;21602;-78
2021/12/03 08:03:13;;;;;;;34.13;24.02;;;;;;;4.52;86.53;98309.26;1738677;82;21044;-78
2021/12/03 08:05:40;;;;;;;28.52;21.40;;;;;;;4.54;86.37;98318.34;1711553;82;21014;-81
2021/12/03 08:08:06;;;;;;;32.90;22.25;;;;;;;4.54;86.32;98329.80;1710274;82;21066;-80
2021/12/03 08:10:35;;;;;;;27.22;19.70;;;;;;;4.56;86.33;98335.67;1735543;82;20986;-80
2021/12/03 08:13:02;;;;;;;29.55;22.20;;;;;;;4.60;86.33;98334.67;1735456;82;21155;-77
2021/12/03 08:15:36;;;;;;;25.60;18.62;;;;;;;4.62;86.25;98324.05;1758416;81;21467;-78
2021/12/03 08:17:59;;;;;;;29.27;19.98;;;;;;;4.63;85.90;98328.85;1768437;81;21498;-79
2021/12/03 08:20:25;;;;;;;25.40;19.37;;;;;;;4.59;86.02;98322.41;1757008;81;21118;-81
2021/12/03 08:22:52;;;;;;;27.93;18.67;;;;;;;4.63;86.10;98320.86;1737657;82;21598;-79
2021/12/03 08:25:19;;;;;;;25.77;19.45;;;;;;;4.63;86.12;98325.67;1706418;82;22105;-79
2021/12/03 08:27:45;;;;;;;25.80;20.17;;;;;;;4.63;86.19;98320.86;1734455;82;20916;-78
2021/12/03 08:30:13;;;;;;;36.30;19.75;;;;;;;4.68;86.31;98319.61;1705295;82;21009;-80
2021/12/03 08:32:45;;;;;;;28.92;19.50;;;;;;;4.73;86.23;98313.83;1731341;82;21061;-80
2021/12/03 08:35:09;;;;;;;32.45;19.32;;;;;;;4.78;86.01;98317.89;1688797;84;21117;-77
2021/12/03 08:37:37;;;;;;;27.60;20.30;;;;;;;4.82;85.75;98312.35;1729526;82;21307;-79
2021/12/03 08:40:06;;;;;;;26.42;20.90;;;;;;;4.81;85.60;98287.28;1712924;82;21612;-77
2021/12/03 08:42:34;;;;;;;24.82;16.52;;;;;;;4.83;85.64;98295.33;1706847;82;21010;-78
2021/12/03 08:45:03;;;;;;;25.92;20.08;;;;;;;4.90;85.61;98291.66;1727245;82;21511;-80
2021/12/03 08:47:29;;;;;;;31.17;19.60;;;;;;;4.92;85.43;98284.23;1704909;82;21039;-79
2021/12/03 08:49:56;;;;;;;22.80;18.12;;;;;;;4.92;85.46;98264.25;1717359;82;21306;-79
2021/12/03 08:54:55;;;;;;;29.12;19.80;;;;;;;4.97;85.10;98250.99;1708035;82;21520;-80
2021/12/03 08:57:31;;;;;;;31.52;20.82;;;;;;;4.94;84.87;98228.86;1703582;84;21072;-82
2021/12/03 09:00:13;;;;;;;26.20;20.08;;;;;;;4.86;84.87;98245.27;1703818;84;21039;-82
2021/12/03 09:02:41;;;;;;;28.60;22.55;;;;;;;4.87;85.14;98258.86;1704007;84;21147;-81
2021/12/03 09:05:10;;;;;;;30.48;21.62;;;;;;;4.80;85.13;98264.36;1703529;82;21019;-83
2021/12/03 09:07:37;;;;;;;28.83;23.27;;;;;;;4.78;85.33;98270.48;1717411;82;21562;-81
2021/12/03 09:10:05;;;;;;;29.25;19.67;;;;;;;4.77;85.44;98284.84;1768634;81;21507;-74
2021/12/03 09:12:33;;;;;;;28.10;19.77;;;;;;;4.83;85.67;98301.17;1768982;81;21000;-75
2021/12/03 09:15:06;;;;;;;25.92;19.67;;;;;;;4.90;85.66;98304.97;1768583;81;21530;-76
2021/12/03 09:20:04;;;;;;;25.57;19.80;;;;;;;5.08;85.60;98291.37;1769291;81;21729;-75
2021/12/03 09:22:33;;;;;;;37.10;26.85;;;;;;;5.15;85.03;98291.97;1768463;81;20931;-80
2021/12/03 09:24:53;;;;;;;34.03;25.60;;;;;;;5.21;84.99;98288.31;1765236;81;21031;-79
2021/12/03 09:27:20;;;;;;;34.13;23.22;;;;;;;5.30;84.88;98282.01;1768317;81;21492;-80
2021/12/03 09:29:48;;;;;;;33.50;22.85;;;;;;;5.35;84.23;98282.06;1721918;82;21515;-76
2021/12/03 09:32:21;;;;;;;22.93;19.77;;;;;;;5.35;84.07;98289.53;1734882;82;21516;-79
2021/12/03 09:34:45;;;;;;;30.70;21.85;;;;;;;5.34;83.65;98302.58;1750336;81;21049;-78
2021/12/03 09:37:12;;;;;;;23.42;18.27;;;;;;;5.28;83.54;98307.56;1768646;81;21518;-77
2021/12/03 09:39:43;;;;;;;27.48;19.60;;;;;;;5.27;83.54;98318.75;1737107;81;21492;-76
2021/12/03 09:42:10;;;;;;;42.70;22.35;;;;;;;5.26;83.52;98304.36;1734573;82;21074;-82
2021/12/03 09:44:43;;;;;;;29.42;20.25;;;;;;;5.26;83.62;98305.17;1738514;82;21141;-82
2021/12/03 09:47:09;;;;;;;26.45;21.00;;;;;;;5.28;83.48;98314.23;1712876;82;21028;-79
2021/12/03 09:49:41;;;;;;;34.73;23.83;;;;;;;5.22;82.82;98308.59;1735948;81;21063;-77
2021/12/03 09:54:43;;;;;;;36.95;24.55;;;;;;;5.03;82.98;98325.94;1708272;84;21788;-75
2021/12/03 09:57:21;;;;;;;27.45;21.37;;;;;;;4.96;83.24;98326.11;1734832;82;21031;-75
2021/12/03 10:03:00;;;;;;;35.73;25.55;;;;;;;4.86;83.81;98351.80;1735900;81;21606;-80
2021/12/03 10:06:14;;;;;;;28.98;24.32;;;;;;;4.81;84.03;98337.89;1762541;81;21023;-81
2021/12/03 10:13:41;;;;;;;35.33;26.52;;;;;;;4.67;84.80;98334.77;1765703;81;21014;-76
2021/12/03 10:19:00;;;;;;;30.72;22.35;;;;;;;4.52;85.90;98331.08;1713959;81;21271;-86
2021/12/03 10:30:29;;;;;;;31.70;24.32;;;;;;;4.22;88.05;98320.25;1755383;81;21081;-75
2021/12/03 10:40:56;;;;;;;29.85;20.40;;;;;;;3.88;90.21;98321.30;1756098;81;21007;-77
2021/12/03 10:46:24;;;;;;;35.73;24.60;;;;;;;3.72;91.04;98338.03;1744487;81;21036;-81
2021/12/03 10:49:20;;;;;;;23.73;18.48;;;;;;;3.72;91.04;98338.03;1760553;80;21041;-74
2021/12/03 11:14:15;;;;;;;10.53;7.67;;;;;;;3.41;92.38;98412.38;1743687;81;21152;-77
2021/12/03 11:40:39;;;;;;;3.45;3.15;;;;;;;2.89;92.92;98427.46;1744755;81;21208;-71
2021/12/03 11:57:47;;;;;;;2.22;1.85;;;;;;;2.40;94.25;98490.52;1694382;84;21500;-85
2021/12/03 12:00:01;;;;;;;1.90;1.77;;;;;;;2.37;94.52;98484.86;1660063;85;33646;-87
2021/12/03 12:03:02;;;;;;;1.87;1.72;;;;;;;2.33;94.81;98474.42;1701949;84;21112;-85
2021/12/03 12:16:12;;;;;;;2.70;2.40;;;;;;;2.13;96.27;98516.61;1764442;81;21033;-80
2021/12/03 12:18:38;;;;;;;2.83;2.52;;;;;;;2.06;96.63;98517.20;1760525;81;21101;-72
2021/12/03 12:58:28;;;;;;;1.92;1.82;;;;;;;1.78;98.64;98559.34;1724357;82;21089;-78
2021/12/03 13:09:14;;;;;;;3.05;2.83;;;;;;;1.83;99.17;98593.95;1727091;82;21059;-75
2021/12/03 14:38:44;;;;;;;5.17;4.67;;;;;;;1.49;100.00;98758.76;1714849;82;21261;-75
2021/12/03 14:41:18;;;;;;;4.55;3.95;;;;;;;1.48;100.00;98761.95;1713057;82;21119;-77
2021/12/03 14:44:03;;;;;;;4.67;4.20;;;;;;;1.48;100.00;98775.20;1685528;84;20957;-75
2021/12/03 14:49:07;;;;;;;5.70;5.10;;;;;;;1.44;100.00;98781.92;1729490;82;21214;-83
2021/12/03 14:51:46;;;;;;;5.97;5.03;;;;;;;1.47;100.00;98792.62;1683002;83;21109;-82
2021/12/03 14:57:45;;;;;;;9.40;5.87;;;;;;;1.49;100.00;98793.20;1738990;81;20973;-89
2021/12/03 15:00:03;;;;;;;8.00;5.65;;;;;;;1.48;100.00;98799.04;1759448;81;21538;-77
2021/12/03 15:02:37;;;;;;;6.40;5.67;;;;;;;1.46;100.00;98796.28;1757696;80;22176;-74
2021/12/03 15:05:19;;;;;;;6.50;5.47;;;;;;;1.45;100.00;98810.55;1745864;81;21055;-76
2021/12/03 15:07:44;;;;;;;7.50;4.73;;;;;;;1.47;100.00;98823.90;1731092;82;20957;-75
2021/12/03 15:10:24;;;;;;;10.82;7.67;;;;;;;1.50;100.00;98811.55;1738232;81;21046;-80
2021/12/03 15:26:05;;;;;;;10.63;7.97;;;;;;;1.46;100.00;98838.67;1765941;80;21006;-79
2021/12/03 15:31:04;;;;;;;8.53;7.03;;;;;;;1.42;100.00;98837.48;1768919;81;21552;-75
2021/12/03 15:33:44;;;;;;;9.33;8.33;;;;;;;1.40;100.00;98847.46;1769020;81;21009;-80
2021/12/03 15:36:06;;;;;;;12.60;7.47;;;;;;;1.40;100.00;98831.05;1765889;81;21057;-79
2021/12/03 16:08:04;;;;;;;9.83;7.78;;;;;;;1.42;100.00;98881.19;1737876;82;21023;-76
2021/12/03 16:10:34;;;;;;;11.63;10.13;;;;;;;1.44;100.00;98889.21;1731749;82;21130;-76
2021/12/03 16:13:17;;;;;;;10.57;9.47;;;;;;;1.47;100.00;98900.73;1724809;82;20931;-78
2021/12/03 16:51:22;;;;;;;11.70;9.73;;;;;;;1.49;100.00;98954.81;1760362;81;21620;-85
2021/12/03 16:53:39;;;;;;;15.80;10.70;;;;;;;1.46;100.00;98950.76;1705187;82;20983;-75
2021/12/03 16:56:10;;;;;;;11.63;9.70;;;;;;;1.47;100.00;98949.74;1757458;81;20939;-78
2021/12/03 16:58:37;;;;;;;13.93;10.67;;;;;;;1.49;100.00;98956.14;1761593;81;21033;-76
2021/12/03 17:12:05;;;;;;;13.60;10.37;;;;;;;1.50;100.00;98985.08;1682181;84;21146;-75